sensor_id;sensor_type;location;lat;lon;timestamp;P1;durP1;ratioP1;P2;durP2;ratioP2
33738;SDS011;20063;51.730;11.110;2022-12-18T00:00:43;13.07;;;3.13;;
33738;SDS011;20063;51.730;11.110;2022-12-18T00:03:14;3.75;;;2.63;;
33738;SDS011;20063;51.730;11.110;2022-12-18T00:05:49;5.53;;;3.13;;
33738;SDS011;20063;51.730;11.110;2022-12-18T00:08:16;5.35;;;3.05;;
33738;SDS011;20063;51.730;11.110;2022-12-18T00:10:42;6.47;;;3.40;;
33738;SDS011;20063;51.730;11.110;2022-12-18T00:13:08;6.03;;;3.25;;
33738;SDS011;20063;51.730;11.110;2022-12-18T00:15:34;7.03;;;2.90;;
33738;SDS011;20063;51.730;11.110;2022-12-18T00:18:01;2.10;;;2.00;;
33738;SDS011;20063;51.730;11.110;2022-12-18T00:20:27;4.90;;;2.80;;
33738;SDS011;20063;51.730;11.110;2022-12-18T00:22:52;7.60;;;2.40;;
33738;SDS011;20063;51.730;11.110;2022-12-18T00:25:18;8.88;;;2.67;;
33738;SDS011;20063;51.730;11.110;2022-12-18T00:27:44;4.75;;;2.75;;
33738;SDS011;20063;51.730;11.110;2022-12-18T00:30:10;3.25;;;2.40;;
33738;SDS011;20063;51.730;11.110;2022-12-18T00:32:36;6.03;;;2.78;;
33738;SDS011;20063;51.730;11.110;2022-12-18T00:35:02;5.78;;;2.60;;
33738;SDS011;20063;51.730;11.110;2022-12-18T00:37:28;3.47;;;2.40;;
33738;SDS011;20063;51.730;11.110;2022-12-18T00:39:54;2.85;;;2.65;;
33738;SDS011;20063;51.730;11.110;2022-12-18T00:42:19;2.47;;;2.28;;
33738;SDS011;20063;51.730;11.110;2022-12-18T00:45:27;4.05;;;2.33;;
33738;SDS011;20063;51.730;11.110;2022-12-18T00:47:54;4.20;;;2.50;;
33738;SDS011;20063;51.730;11.110;2022-12-18T00:50:21;4.07;;;2.47;;
33738;SDS011;20063;51.730;11.110;2022-12-18T00:52:48;4.43;;;2.72;;
33738;SDS011;20063;51.730;11.110;2022-12-18T00:55:13;2.83;;;2.33;;
33738;SDS011;20063;51.730;11.110;2022-12-18T00:57:39;6.57;;;3.17;;
33738;SDS011;20063;51.730;11.110;2022-12-18T01:00:06;6.13;;;3.30;;
33738;SDS011;20063;51.730;11.110;2022-12-18T01:02:33;4.18;;;2.40;;
33738;SDS011;20063;51.730;11.110;2022-12-18T01:04:59;8.43;;;2.88;;
33738;SDS011;20063;51.730;11.110;2022-12-18T01:07:24;9.00;;;4.22;;
33738;SDS011;20063;51.730;11.110;2022-12-18T01:09:50;12.30;;;3.17;;
33738;SDS011;20063;51.730;11.110;2022-12-18T01:12:15;13.65;;;2.70;;
33738;SDS011;20063;51.730;11.110;2022-12-18T01:14:42;4.60;;;2.72;;
33738;SDS011;20063;51.730;11.110;2022-12-18T01:17:07;3.15;;;2.45;;
33738;SDS011;20063;51.730;11.110;2022-12-18T01:19:33;6.05;;;2.45;;
33738;SDS011;20063;51.730;11.110;2022-12-18T01:21:59;2.90;;;2.33;;
33738;SDS011;20063;51.730;11.110;2022-12-18T01:24:24;5.00;;;2.25;;
33738;SDS011;20063;51.730;11.110;2022-12-18T01:26:51;3.70;;;2.53;;
33738;SDS011;20063;51.730;11.110;2022-12-18T01:29:17;4.18;;;2.38;;
33738;SDS011;20063;51.730;11.110;2022-12-18T01:31:43;6.32;;;2.70;;
33738;SDS011;20063;51.730;11.110;2022-12-18T01:34:08;4.82;;;2.53;;
33738;SDS011;20063;51.730;11.110;2022-12-18T01:36:36;4.45;;;2.28;;
33738;SDS011;20063;51.730;11.110;2022-12-18T01:39:20;2.97;;;2.65;;
33738;SDS011;20063;51.730;11.110;2022-12-18T01:41:46;8.57;;;2.20;;
33738;SDS011;20063;51.730;11.110;2022-12-18T01:49:58;7.88;;;2.78;;
33738;SDS011;20063;51.730;11.110;2022-12-18T01:52:28;6.68;;;2.30;;
33738;SDS011;20063;51.730;11.110;2022-12-18T01:54:55;2.58;;;2.38;;
33738;SDS011;20063;51.730;11.110;2022-12-18T01:57:22;4.93;;;2.30;;
33738;SDS011;20063;51.730;11.110;2022-12-18T01:59:50;3.97;;;2.50;;
33738;SDS011;20063;51.730;11.110;2022-12-18T02:02:19;5.85;;;2.55;;
33738;SDS011;20063;51.730;11.110;2022-12-18T02:04:46;4.88;;;2.53;;
33738;SDS011;20063;51.730;11.110;2022-12-18T02:12:48;2.80;;;2.10;;
33738;SDS011;20063;51.730;11.110;2022-12-18T02:15:44;2.55;;;2.35;;
33738;SDS011;20063;51.730;11.110;2022-12-18T02:18:32;5.18;;;2.80;;
33738;SDS011;20063;51.730;11.110;2022-12-18T02:26:45;7.53;;;2.75;;
33738;SDS011;20063;51.730;11.110;2022-12-18T02:29:15;10.02;;;2.75;;
33738;SDS011;20063;51.730;11.110;2022-12-18T02:31:48;7.75;;;2.45;;
33738;SDS011;20063;51.730;11.110;2022-12-18T02:34:17;2.75;;;2.55;;
33738;SDS011;20063;51.730;11.110;2022-12-18T02:36:44;8.68;;;3.10;;
33738;SDS011;20063;51.730;11.110;2022-12-18T02:39:13;3.00;;;2.63;;
33738;SDS011;20063;51.730;11.110;2022-12-18T02:41:40;9.02;;;2.50;;
33738;SDS011;20063;51.730;11.110;2022-12-18T02:44:08;3.75;;;2.75;;
33738;SDS011;20063;51.730;11.110;2022-12-18T02:49:14;3.72;;;2.63;;
33738;SDS011;20063;51.730;11.110;2022-12-18T02:51:50;5.50;;;2.78;;
33738;SDS011;20063;51.730;11.110;2022-12-18T02:54:55;9.50;;;3.40;;
33738;SDS011;20063;51.730;11.110;2022-12-18T03:00:12;2.42;;;2.20;;
33738;SDS011;20063;51.730;11.110;2022-12-18T03:03:02;8.88;;;2.75;;
33738;SDS011;20063;51.730;11.110;2022-12-18T03:08:03;6.88;;;2.67;;
33738;SDS011;20063;51.730;11.110;2022-12-18T03:10:35;10.68;;;2.83;;
33738;SDS011;20063;51.730;11.110;2022-12-18T03:13:12;8.90;;;2.85;;
33738;SDS011;20063;51.730;11.110;2022-12-18T03:15:45;6.05;;;2.75;;
33738;SDS011;20063;51.730;11.110;2022-12-18T03:18:17;5.32;;;2.60;;
33738;SDS011;20063;51.730;11.110;2022-12-18T03:20:48;7.00;;;3.28;;
33738;SDS011;20063;51.730;11.110;2022-12-18T03:23:18;12.77;;;3.30;;
33738;SDS011;20063;51.730;11.110;2022-12-18T03:25:47;7.78;;;2.75;;
33738;SDS011;20063;51.730;11.110;2022-12-18T03:28:20;12.95;;;3.58;;
33738;SDS011;20063;51.730;11.110;2022-12-18T03:30:48;6.22;;;3.22;;
33738;SDS011;20063;51.730;11.110;2022-12-18T03:33:24;6.47;;;2.97;;
33738;SDS011;20063;51.730;11.110;2022-12-18T03:35:54;6.88;;;3.10;;
33738;SDS011;20063;51.730;11.110;2022-12-18T03:38:20;3.53;;;2.88;;
33738;SDS011;20063;51.730;11.110;2022-12-18T03:40:50;5.78;;;2.83;;
33738;SDS011;20063;51.730;11.110;2022-12-18T03:46:30;8.55;;;2.90;;
33738;SDS011;20063;51.730;11.110;2022-12-18T03:51:54;5.95;;;2.67;;
33738;SDS011;20063;51.730;11.110;2022-12-18T03:54:28;4.50;;;2.78;;
33738;SDS011;20063;51.730;11.110;2022-12-18T03:56:58;5.13;;;2.90;;
33738;SDS011;20063;51.730;11.110;2022-12-18T03:59:29;5.00;;;2.75;;
33738;SDS011;20063;51.730;11.110;2022-12-18T04:01:56;3.60;;;2.42;;
33738;SDS011;20063;51.730;11.110;2022-12-18T04:04:24;6.00;;;2.92;;
33738;SDS011;20063;51.730;11.110;2022-12-18T04:06:51;4.47;;;2.58;;
33738;SDS011;20063;51.730;11.110;2022-12-18T04:09:17;2.65;;;2.45;;
33738;SDS011;20063;51.730;11.110;2022-12-18T04:11:45;7.47;;;3.08;;
33738;SDS011;20063;51.730;11.110;2022-12-18T04:14:12;2.60;;;2.40;;
33738;SDS011;20063;51.730;11.110;2022-12-18T04:16:38;3.40;;;2.40;;
33738;SDS011;20063;51.730;11.110;2022-12-18T04:19:03;4.90;;;3.05;;
33738;SDS011;20063;51.730;11.110;2022-12-18T04:21:29;6.93;;;3.17;;
33738;SDS011;20063;51.730;11.110;2022-12-18T04:23:55;5.65;;;2.75;;
33738;SDS011;20063;51.730;11.110;2022-12-18T04:26:20;4.88;;;2.88;;
33738;SDS011;20063;51.730;11.110;2022-12-18T04:28:46;4.35;;;2.67;;
33738;SDS011;20063;51.730;11.110;2022-12-18T04:31:12;6.07;;;3.20;;
33738;SDS011;20063;51.730;11.110;2022-12-18T04:33:38;10.10;;;3.38;;
33738;SDS011;20063;51.730;11.110;2022-12-18T04:36:03;6.97;;;2.83;;
33738;SDS011;20063;51.730;11.110;2022-12-18T04:38:29;3.85;;;3.33;;
33738;SDS011;20063;51.730;11.110;2022-12-18T04:40:55;7.50;;;3.65;;
33738;SDS011;20063;51.730;11.110;2022-12-18T04:43:24;11.68;;;4.85;;
33738;SDS011;20063;51.730;11.110;2022-12-18T04:45:49;4.75;;;3.38;;
33738;SDS011;20063;51.730;11.110;2022-12-18T04:48:15;8.35;;;4.45;;
33738;SDS011;20063;51.730;11.110;2022-12-18T04:50:41;7.70;;;4.13;;
33738;SDS011;20063;51.730;11.110;2022-12-18T04:53:09;8.18;;;4.57;;
33738;SDS011;20063;51.730;11.110;2022-12-18T04:55:35;6.28;;;4.15;;
33738;SDS011;20063;51.730;11.110;2022-12-18T04:58:00;11.07;;;4.82;;
33738;SDS011;20063;51.730;11.110;2022-12-18T05:00:26;8.38;;;4.78;;
33738;SDS011;20063;51.730;11.110;2022-12-18T05:02:52;7.82;;;4.63;;
33738;SDS011;20063;51.730;11.110;2022-12-18T05:05:17;8.25;;;5.20;;
33738;SDS011;20063;51.730;11.110;2022-12-18T05:07:43;8.02;;;4.97;;
33738;SDS011;20063;51.730;11.110;2022-12-18T05:10:08;7.93;;;5.25;;
33738;SDS011;20063;51.730;11.110;2022-12-18T05:12:34;6.63;;;4.53;;
33738;SDS011;20063;51.730;11.110;2022-12-18T05:15:20;9.18;;;3.88;;
33738;SDS011;20063;51.730;11.110;2022-12-18T05:17:45;7.97;;;3.70;;
33738;SDS011;20063;51.730;11.110;2022-12-18T05:20:11;11.32;;;3.40;;
33738;SDS011;20063;51.730;11.110;2022-12-18T05:22:37;12.27;;;3.90;;
33738;SDS011;20063;51.730;11.110;2022-12-18T05:25:02;8.43;;;3.60;;
33738;SDS011;20063;51.730;11.110;2022-12-18T05:27:28;7.35;;;3.88;;
33738;SDS011;20063;51.730;11.110;2022-12-18T05:29:53;4.93;;;3.60;;
33738;SDS011;20063;51.730;11.110;2022-12-18T05:32:19;7.28;;;3.60;;
33738;SDS011;20063;51.730;11.110;2022-12-18T05:34:45;12.40;;;4.38;;
33738;SDS011;20063;51.730;11.110;2022-12-18T05:37:10;5.10;;;3.45;;
33738;SDS011;20063;51.730;11.110;2022-12-18T05:39:36;4.75;;;3.78;;
33738;SDS011;20063;51.730;11.110;2022-12-18T05:42:01;3.83;;;3.42;;
33738;SDS011;20063;51.730;11.110;2022-12-18T05:44:27;8.52;;;3.90;;
33738;SDS011;20063;51.730;11.110;2022-12-18T05:46:53;4.32;;;3.90;;
33738;SDS011;20063;51.730;11.110;2022-12-18T05:49:18;5.90;;;3.83;;
33738;SDS011;20063;51.730;11.110;2022-12-18T05:51:45;14.43;;;4.35;;
33738;SDS011;20063;51.730;11.110;2022-12-18T05:54:11;9.80;;;4.63;;
33738;SDS011;20063;51.730;11.110;2022-12-18T05:56:36;7.15;;;4.38;;
33738;SDS011;20063;51.730;11.110;2022-12-18T05:59:02;7.20;;;3.70;;
33738;SDS011;20063;51.730;11.110;2022-12-18T06:01:27;6.22;;;3.83;;
33738;SDS011;20063;51.730;11.110;2022-12-18T06:03:53;13.20;;;4.10;;
33738;SDS011;20063;51.730;11.110;2022-12-18T06:06:21;6.93;;;3.92;;
33738;SDS011;20063;51.730;11.110;2022-12-18T06:08:49;12.80;;;4.60;;
33738;SDS011;20063;51.730;11.110;2022-12-18T06:11:17;3.78;;;2.92;;
33738;SDS011;20063;51.730;11.110;2022-12-18T06:13:53;4.68;;;2.70;;
33738;SDS011;20063;51.730;11.110;2022-12-18T06:16:19;5.13;;;3.03;;
33738;SDS011;20063;51.730;11.110;2022-12-18T06:18:45;4.75;;;2.80;;
33738;SDS011;20063;51.730;11.110;2022-12-18T06:21:11;8.00;;;3.35;;
33738;SDS011;20063;51.730;11.110;2022-12-18T06:23:38;4.43;;;3.42;;
33738;SDS011;20063;51.730;11.110;2022-12-18T06:26:07;5.60;;;3.08;;
33738;SDS011;20063;51.730;11.110;2022-12-18T06:28:34;10.75;;;3.55;;
33738;SDS011;20063;51.730;11.110;2022-12-18T06:31:00;5.38;;;2.95;;
33738;SDS011;20063;51.730;11.110;2022-12-18T06:33:28;6.95;;;3.10;;
33738;SDS011;20063;51.730;11.110;2022-12-18T06:35:54;3.03;;;2.72;;
33738;SDS011;20063;51.730;11.110;2022-12-18T06:38:25;6.82;;;3.83;;
33738;SDS011;20063;51.730;11.110;2022-12-18T06:40:51;13.25;;;6.38;;
33738;SDS011;20063;51.730;11.110;2022-12-18T06:43:17;13.00;;;6.77;;
33738;SDS011;20063;51.730;11.110;2022-12-18T06:45:42;13.50;;;6.38;;
33738;SDS011;20063;51.730;11.110;2022-12-18T06:48:08;14.07;;;5.87;;
33738;SDS011;20063;51.730;11.110;2022-12-18T06:50:34;12.13;;;6.07;;
33738;SDS011;20063;51.730;11.110;2022-12-18T06:52:59;10.77;;;5.75;;
33738;SDS011;20063;51.730;11.110;2022-12-18T06:55:25;10.98;;;5.15;;
33738;SDS011;20063;51.730;11.110;2022-12-18T06:57:51;9.82;;;5.30;;
33738;SDS011;20063;51.730;11.110;2022-12-18T07:00:16;9.93;;;4.90;;
33738;SDS011;20063;51.730;11.110;2022-12-18T07:02:42;11.87;;;4.80;;
33738;SDS011;20063;51.730;11.110;2022-12-18T07:05:08;10.60;;;4.73;;
33738;SDS011;20063;51.730;11.110;2022-12-18T07:07:35;10.93;;;4.67;;
33738;SDS011;20063;51.730;11.110;2022-12-18T07:10:01;14.10;;;5.18;;
33738;SDS011;20063;51.730;11.110;2022-12-18T07:12:27;16.02;;;6.43;;
33738;SDS011;20063;51.730;11.110;2022-12-18T07:14:53;9.70;;;6.25;;
33738;SDS011;20063;51.730;11.110;2022-12-18T07:17:18;16.70;;;5.82;;
33738;SDS011;20063;51.730;11.110;2022-12-18T07:19:44;17.27;;;6.75;;
33738;SDS011;20063;51.730;11.110;2022-12-18T07:22:10;10.80;;;6.30;;
33738;SDS011;20063;51.730;11.110;2022-12-18T07:24:35;15.75;;;6.85;;
33738;SDS011;20063;51.730;11.110;2022-12-18T07:27:02;15.57;;;6.60;;
33738;SDS011;20063;51.730;11.110;2022-12-18T07:29:27;14.50;;;6.57;;
33738;SDS011;20063;51.730;11.110;2022-12-18T07:31:53;9.13;;;5.57;;
33738;SDS011;20063;51.730;11.110;2022-12-18T07:34:19;12.77;;;7.05;;
33738;SDS011;20063;51.730;11.110;2022-12-18T07:36:45;17.05;;;8.25;;
33738;SDS011;20063;51.730;11.110;2022-12-18T07:39:10;20.70;;;10.02;;
33738;SDS011;20063;51.730;11.110;2022-12-18T07:41:36;19.48;;;9.77;;
33738;SDS011;20063;51.730;11.110;2022-12-18T07:44:02;16.00;;;7.25;;
33738;SDS011;20063;51.730;11.110;2022-12-18T07:46:28;16.83;;;8.15;;
33738;SDS011;20063;51.730;11.110;2022-12-18T07:48:53;18.10;;;7.88;;
33738;SDS011;20063;51.730;11.110;2022-12-18T07:51:19;12.00;;;6.05;;
33738;SDS011;20063;51.730;11.110;2022-12-18T07:53:45;14.07;;;6.10;;
33738;SDS011;20063;51.730;11.110;2022-12-18T07:56:11;11.90;;;6.07;;
33738;SDS011;20063;51.730;11.110;2022-12-18T07:58:38;10.20;;;6.28;;
33738;SDS011;20063;51.730;11.110;2022-12-18T08:03:33;15.55;;;6.10;;
33738;SDS011;20063;51.730;11.110;2022-12-18T08:06:00;8.73;;;5.50;;
33738;SDS011;20063;51.730;11.110;2022-12-18T08:08:29;9.43;;;5.55;;
33738;SDS011;20063;51.730;11.110;2022-12-18T08:10:55;8.07;;;5.47;;
33738;SDS011;20063;51.730;11.110;2022-12-18T08:13:21;11.95;;;5.22;;
33738;SDS011;20063;51.730;11.110;2022-12-18T08:16:00;8.52;;;5.22;;
33738;SDS011;20063;51.730;11.110;2022-12-18T08:18:31;8.90;;;5.13;;
33738;SDS011;20063;51.730;11.110;2022-12-18T08:21:06;6.15;;;4.63;;
33738;SDS011;20063;51.730;11.110;2022-12-18T08:23:43;8.32;;;4.05;;
33738;SDS011;20063;51.730;11.110;2022-12-18T08:26:12;8.48;;;3.72;;
33738;SDS011;20063;51.730;11.110;2022-12-18T08:28:39;7.80;;;3.30;;
33738;SDS011;20063;51.730;11.110;2022-12-18T08:31:05;12.02;;;3.90;;
33738;SDS011;20063;51.730;11.110;2022-12-18T08:33:32;6.28;;;4.07;;
33738;SDS011;20063;51.730;11.110;2022-12-18T08:35:59;7.57;;;4.47;;
33738;SDS011;20063;51.730;11.110;2022-12-18T08:38:25;8.13;;;4.72;;
33738;SDS011;20063;51.730;11.110;2022-12-18T08:40:58;7.35;;;4.82;;
33738;SDS011;20063;51.730;11.110;2022-12-18T08:43:32;12.15;;;5.07;;
33738;SDS011;20063;51.730;11.110;2022-12-18T08:46:17;11.88;;;4.75;;
33738;SDS011;20063;51.730;11.110;2022-12-18T08:48:44;15.52;;;5.13;;
33738;SDS011;20063;51.730;11.110;2022-12-18T08:51:10;5.45;;;4.25;;
33738;SDS011;20063;51.730;11.110;2022-12-18T08:53:39;10.63;;;4.93;;
33738;SDS011;20063;51.730;11.110;2022-12-18T08:56:04;8.70;;;5.03;;
33738;SDS011;20063;51.730;11.110;2022-12-18T08:58:30;13.63;;;5.95;;
33738;SDS011;20063;51.730;11.110;2022-12-18T09:00:59;14.45;;;6.65;;
33738;SDS011;20063;51.730;11.110;2022-12-18T09:03:28;8.15;;;5.75;;
33738;SDS011;20063;51.730;11.110;2022-12-18T09:05:54;10.18;;;5.90;;
33738;SDS011;20063;51.730;11.110;2022-12-18T09:08:20;28.85;;;11.95;;
33738;SDS011;20063;51.730;11.110;2022-12-18T09:10:46;20.40;;;11.10;;
33738;SDS011;20063;51.730;11.110;2022-12-18T09:13:14;18.05;;;9.02;;
33738;SDS011;20063;51.730;11.110;2022-12-18T09:15:42;14.73;;;8.32;;
33738;SDS011;20063;51.730;11.110;2022-12-18T09:18:12;15.05;;;7.20;;
33738;SDS011;20063;51.730;11.110;2022-12-18T09:20:39;13.25;;;6.97;;
33738;SDS011;20063;51.730;11.110;2022-12-18T09:23:05;15.30;;;7.97;;
33738;SDS011;20063;51.730;11.110;2022-12-18T09:25:32;18.75;;;8.68;;
33738;SDS011;20063;51.730;11.110;2022-12-18T09:28:00;11.93;;;7.43;;
33738;SDS011;20063;51.730;11.110;2022-12-18T09:30:27;13.85;;;8.57;;
33738;SDS011;20063;51.730;11.110;2022-12-18T09:32:53;13.38;;;7.72;;
33738;SDS011;20063;51.730;11.110;2022-12-18T09:35:18;42.90;;;13.52;;
33738;SDS011;20063;51.730;11.110;2022-12-18T09:37:44;33.47;;;13.35;;
33738;SDS011;20063;51.730;11.110;2022-12-18T09:40:16;30.70;;;13.65;;
33738;SDS011;20063;51.730;11.110;2022-12-18T09:42:45;29.52;;;13.05;;
33738;SDS011;20063;51.730;11.110;2022-12-18T09:45:18;30.02;;;10.77;;
33738;SDS011;20063;51.730;11.110;2022-12-18T09:47:45;25.70;;;11.45;;
33738;SDS011;20063;51.730;11.110;2022-12-18T09:53:04;50.38;;;17.65;;
33738;SDS011;20063;51.730;11.110;2022-12-18T09:55:36;63.40;;;21.33;;
33738;SDS011;20063;51.730;11.110;2022-12-18T10:00:57;29.83;;;12.18;;
33738;SDS011;20063;51.730;11.110;2022-12-18T10:03:22;31.38;;;12.02;;
33738;SDS011;20063;51.730;11.110;2022-12-18T10:16:29;22.42;;;9.75;;
33738;SDS011;20063;51.730;11.110;2022-12-18T10:19:18;17.48;;;7.97;;
33738;SDS011;20063;51.730;11.110;2022-12-18T10:22:03;8.23;;;3.22;;
33738;SDS011;20063;51.730;11.110;2022-12-18T10:27:39;9.25;;;3.17;;
33738;SDS011;20063;51.730;11.110;2022-12-18T10:30:12;4.00;;;2.70;;
33738;SDS011;20063;51.730;11.110;2022-12-18T10:32:40;10.00;;;3.13;;
33738;SDS011;20063;51.730;11.110;2022-12-18T10:35:22;5.32;;;3.03;;
33738;SDS011;20063;51.730;11.110;2022-12-18T10:38:00;11.70;;;3.03;;
33738;SDS011;20063;51.730;11.110;2022-12-18T10:40:47;17.17;;;3.20;;
33738;SDS011;20063;51.730;11.110;2022-12-18T10:43:14;7.43;;;2.85;;
33738;SDS011;20063;51.730;11.110;2022-12-18T10:45:41;6.82;;;2.92;;
33738;SDS011;20063;51.730;11.110;2022-12-18T10:48:22;9.68;;;2.50;;
33738;SDS011;20063;51.730;11.110;2022-12-18T10:50:49;5.32;;;2.60;;
33738;SDS011;20063;51.730;11.110;2022-12-18T10:53:27;8.48;;;2.58;;
33738;SDS011;20063;51.730;11.110;2022-12-18T10:55:54;3.08;;;2.10;;
33738;SDS011;20063;51.730;11.110;2022-12-18T11:01:02;7.50;;;2.58;;
33738;SDS011;20063;51.730;11.110;2022-12-18T11:03:30;20.70;;;10.45;;
33738;SDS011;20063;51.730;11.110;2022-12-18T11:06:04;26.90;;;11.40;;
33738;SDS011;20063;51.730;11.110;2022-12-18T11:08:32;35.93;;;16.33;;
33738;SDS011;20063;51.730;11.110;2022-12-18T11:10:58;51.72;;;21.63;;
33738;SDS011;20063;51.730;11.110;2022-12-18T11:13:24;8.02;;;3.50;;
33738;SDS011;20063;51.730;11.110;2022-12-18T11:15:52;21.05;;;9.35;;
33738;SDS011;20063;51.730;11.110;2022-12-18T11:20:57;20.85;;;9.35;;
33738;SDS011;20063;51.730;11.110;2022-12-18T11:23:25;11.13;;;5.47;;
33738;SDS011;20063;51.730;11.110;2022-12-18T11:25:53;11.60;;;4.38;;
33738;SDS011;20063;51.730;11.110;2022-12-18T11:31:26;16.73;;;6.63;;
33738;SDS011;20063;51.730;11.110;2022-12-18T11:41:52;3.45;;;2.47;;
33738;SDS011;20063;51.730;11.110;2022-12-18T11:47:17;6.22;;;2.70;;
33738;SDS011;20063;51.730;11.110;2022-12-18T11:49:44;8.02;;;2.80;;
33738;SDS011;20063;51.730;11.110;2022-12-18T11:52:24;4.78;;;2.40;;
33738;SDS011;20063;51.730;11.110;2022-12-18T11:54:55;6.00;;;2.83;;
33738;SDS011;20063;51.730;11.110;2022-12-18T11:57:31;7.22;;;2.33;;
33738;SDS011;20063;51.730;11.110;2022-12-18T12:00:20;4.68;;;2.40;;
33738;SDS011;20063;51.730;11.110;2022-12-18T12:11:17;6.93;;;3.83;;
33738;SDS011;20063;51.730;11.110;2022-12-18T12:33:19;22.08;;;12.48;;
33738;SDS011;20063;51.730;11.110;2022-12-18T12:38:48;25.65;;;13.20;;
33738;SDS011;20063;51.730;11.110;2022-12-18T12:41:23;31.30;;;12.02;;
33738;SDS011;20063;51.730;11.110;2022-12-18T12:44:22;24.63;;;12.80;;
33738;SDS011;20063;51.730;11.110;2022-12-18T12:46:55;31.17;;;11.93;;
33738;SDS011;20063;51.730;11.110;2022-12-18T12:49:25;24.67;;;11.05;;
33738;SDS011;20063;51.730;11.110;2022-12-18T12:52:15;21.40;;;11.20;;
33738;SDS011;20063;51.730;11.110;2022-12-18T12:54:41;17.13;;;11.02;;
33738;SDS011;20063;51.730;11.110;2022-12-18T12:57:15;23.45;;;11.73;;
33738;SDS011;20063;51.730;11.110;2022-12-18T13:05:45;20.13;;;10.93;;
33738;SDS011;20063;51.730;11.110;2022-12-18T13:08:27;20.70;;;11.18;;
33738;SDS011;20063;51.730;11.110;2022-12-18T13:10:55;33.08;;;21.63;;
33738;SDS011;20063;51.730;11.110;2022-12-18T13:13:47;24.63;;;13.00;;
33738;SDS011;20063;51.730;11.110;2022-12-18T13:16:18;32.90;;;15.00;;
33738;SDS011;20063;51.730;11.110;2022-12-18T13:18:51;62.88;;;22.40;;
33738;SDS011;20063;51.730;11.110;2022-12-18T13:24:45;26.70;;;12.50;;
33738;SDS011;20063;51.730;11.110;2022-12-18T13:26:54;28.00;;;13.05;;
33738;SDS011;20063;51.730;11.110;2022-12-18T13:32:18;20.17;;;10.57;;
33738;SDS011;20063;51.730;11.110;2022-12-18T13:34:46;15.57;;;9.30;;
33738;SDS011;20063;51.730;11.110;2022-12-18T13:39:56;16.45;;;9.30;;
33738;SDS011;20063;51.730;11.110;2022-12-18T13:45:37;15.82;;;6.43;;
33738;SDS011;20063;51.730;11.110;2022-12-18T13:48:14;15.60;;;7.88;;
33738;SDS011;20063;51.730;11.110;2022-12-18T13:51:26;10.38;;;6.55;;
33738;SDS011;20063;51.730;11.110;2022-12-18T13:53:51;11.18;;;5.15;;
33738;SDS011;20063;51.730;11.110;2022-12-18T13:56:28;9.63;;;4.55;;
33738;SDS011;20063;51.730;11.110;2022-12-18T14:01:53;10.60;;;4.13;;
33738;SDS011;20063;51.730;11.110;2022-12-18T14:06:49;7.32;;;3.40;;
33738;SDS011;20063;51.730;11.110;2022-12-18T14:09:19;7.70;;;3.50;;
33738;SDS011;20063;51.730;11.110;2022-12-18T14:11:49;6.72;;;3.75;;
33738;SDS011;20063;51.730;11.110;2022-12-18T14:14:19;6.70;;;3.35;;
33738;SDS011;20063;51.730;11.110;2022-12-18T14:16:45;6.40;;;3.13;;
33738;SDS011;20063;51.730;11.110;2022-12-18T14:19:14;6.15;;;3.40;;
33738;SDS011;20063;51.730;11.110;2022-12-18T14:21:45;4.22;;;2.78;;
33738;SDS011;20063;51.730;11.110;2022-12-18T14:24:14;3.80;;;2.58;;
33738;SDS011;20063;51.730;11.110;2022-12-18T14:26:46;3.70;;;2.67;;
33738;SDS011;20063;51.730;11.110;2022-12-18T14:29:25;3.05;;;2.60;;
33738;SDS011;20063;51.730;11.110;2022-12-18T14:34:41;4.05;;;2.60;;
33738;SDS011;20063;51.730;11.110;2022-12-18T14:37:09;6.13;;;3.28;;
33738;SDS011;20063;51.730;11.110;2022-12-18T14:39:39;4.25;;;2.97;;
33738;SDS011;20063;51.730;11.110;2022-12-18T14:42:05;5.90;;;3.42;;
33738;SDS011;20063;51.730;11.110;2022-12-18T14:44:31;9.30;;;4.93;;
33738;SDS011;20063;51.730;11.110;2022-12-18T14:46:56;7.38;;;4.93;;
33738;SDS011;20063;51.730;11.110;2022-12-18T14:49:23;9.70;;;5.03;;
33738;SDS011;20063;51.730;11.110;2022-12-18T14:52:03;8.27;;;4.18;;
33738;SDS011;20063;51.730;11.110;2022-12-18T14:54:31;11.43;;;5.28;;
33738;SDS011;20063;51.730;11.110;2022-12-18T14:57:04;10.23;;;6.18;;
33738;SDS011;20063;51.730;11.110;2022-12-18T14:59:46;15.18;;;7.30;;
33738;SDS011;20063;51.730;11.110;2022-12-18T15:04:45;21.30;;;10.32;;
33738;SDS011;20063;51.730;11.110;2022-12-18T15:09:47;22.52;;;10.95;;
33738;SDS011;20063;51.730;11.110;2022-12-18T15:12:45;16.05;;;7.35;;
33738;SDS011;20063;51.730;11.110;2022-12-18T15:17:58;19.60;;;8.13;;
33738;SDS011;20063;51.730;11.110;2022-12-18T15:20:27;19.00;;;8.13;;
33738;SDS011;20063;51.730;11.110;2022-12-18T15:22:56;27.42;;;11.45;;
33738;SDS011;20063;51.730;11.110;2022-12-18T15:25:32;22.38;;;10.43;;
33738;SDS011;20063;51.730;11.110;2022-12-18T15:28:02;18.30;;;9.20;;
33738;SDS011;20063;51.730;11.110;2022-12-18T15:30:29;19.60;;;9.60;;
33738;SDS011;20063;51.730;11.110;2022-12-18T15:35:43;15.05;;;8.35;;
33738;SDS011;20063;51.730;11.110;2022-12-18T15:38:08;12.48;;;7.15;;
33738;SDS011;20063;51.730;11.110;2022-12-18T15:40:34;12.75;;;6.65;;
33738;SDS011;20063;51.730;11.110;2022-12-18T15:42:59;16.08;;;7.20;;
33738;SDS011;20063;51.730;11.110;2022-12-18T15:45:43;11.15;;;5.75;;
33738;SDS011;20063;51.730;11.110;2022-12-18T15:48:14;12.48;;;7.00;;
33738;SDS011;20063;51.730;11.110;2022-12-18T15:50:45;16.75;;;8.60;;
33738;SDS011;20063;51.730;11.110;2022-12-18T15:53:10;20.58;;;8.85;;
33738;SDS011;20063;51.730;11.110;2022-12-18T15:55:36;18.20;;;8.90;;
33738;SDS011;20063;51.730;11.110;2022-12-18T15:58:21;17.00;;;8.43;;
33738;SDS011;20063;51.730;11.110;2022-12-18T16:00:46;16.40;;;8.10;;
33738;SDS011;20063;51.730;11.110;2022-12-18T16:03:12;18.98;;;9.25;;
33738;SDS011;20063;51.730;11.110;2022-12-18T16:05:38;15.45;;;8.70;;
33738;SDS011;20063;51.730;11.110;2022-12-18T16:08:04;18.60;;;9.10;;
33738;SDS011;20063;51.730;11.110;2022-12-18T16:10:29;16.83;;;7.78;;
33738;SDS011;20063;51.730;11.110;2022-12-18T16:12:55;16.27;;;9.07;;
33738;SDS011;20063;51.730;11.110;2022-12-18T16:15:21;22.13;;;9.07;;
33738;SDS011;20063;51.730;11.110;2022-12-18T16:17:47;18.75;;;9.13;;
33738;SDS011;20063;51.730;11.110;2022-12-18T16:20:14;19.90;;;9.55;;
33738;SDS011;20063;51.730;11.110;2022-12-18T16:22:41;23.88;;;10.77;;
33738;SDS011;20063;51.730;11.110;2022-12-18T16:25:15;20.50;;;10.88;;
33738;SDS011;20063;51.730;11.110;2022-12-18T16:27:41;16.90;;;9.20;;
33738;SDS011;20063;51.730;11.110;2022-12-18T16:30:11;19.17;;;10.23;;
33738;SDS011;20063;51.730;11.110;2022-12-18T16:32:41;21.60;;;10.40;;
33738;SDS011;20063;51.730;11.110;2022-12-18T16:35:08;23.60;;;9.05;;
33738;SDS011;20063;51.730;11.110;2022-12-18T16:37:36;12.27;;;6.93;;
33738;SDS011;20063;51.730;11.110;2022-12-18T16:40:01;16.77;;;7.80;;
33738;SDS011;20063;51.730;11.110;2022-12-18T16:42:27;15.80;;;7.43;;
33738;SDS011;20063;51.730;11.110;2022-12-18T16:44:53;21.35;;;8.02;;
33738;SDS011;20063;51.730;11.110;2022-12-18T16:47:19;17.17;;;7.35;;
33738;SDS011;20063;51.730;11.110;2022-12-18T16:49:44;17.77;;;7.72;;
33738;SDS011;20063;51.730;11.110;2022-12-18T16:52:10;14.38;;;7.50;;
33738;SDS011;20063;51.730;11.110;2022-12-18T16:54:36;18.15;;;8.38;;
33738;SDS011;20063;51.730;11.110;2022-12-18T16:57:02;15.43;;;7.78;;